sensor_id;sensor_type;location;lat;lon;timestamp;P1;durP1;ratioP1;P2;durP2;ratioP2
9789;SDS011;4934;50.852;8.098;2023-02-28T00:01:13;8.07;;;2.80;;
9789;SDS011;4934;50.852;8.098;2023-02-28T00:03:39;7.63;;;2.70;;
9789;SDS011;4934;50.852;8.098;2023-02-28T00:06:05;7.60;;;2.60;;
9789;SDS011;4934;50.852;8.098;2023-02-28T00:08:32;6.67;;;2.87;;
9789;SDS011;4934;50.852;8.098;2023-02-28T00:11:02;5.53;;;2.50;;
9789;SDS011;4934;50.852;8.098;2023-02-28T00:13:37;6.90;;;2.97;;
9789;SDS011;4934;50.852;8.098;2023-02-28T00:16:04;4.67;;;2.43;;
9789;SDS011;4934;50.852;8.098;2023-02-28T00:18:32;3.60;;;1.85;;
9789;SDS011;4934;50.852;8.098;2023-02-28T00:20:58;8.73;;;2.73;;
9789;SDS011;4934;50.852;8.098;2023-02-28T00:23:24;6.10;;;2.33;;
9789;SDS011;4934;50.852;8.098;2023-02-28T00:25:51;6.03;;;2.20;;
9789;SDS011;4934;50.852;8.098;2023-02-28T00:28:17;4.70;;;2.03;;
9789;SDS011;4934;50.852;8.098;2023-02-28T00:30:43;6.17;;;2.93;;
9789;SDS011;4934;50.852;8.098;2023-02-28T00:33:09;11.60;;;2.87;;
9789;SDS011;4934;50.852;8.098;2023-02-28T00:35:34;4.63;;;2.07;;
9789;SDS011;4934;50.852;8.098;2023-02-28T00:38:00;7.17;;;2.70;;
9789;SDS011;4934;50.852;8.098;2023-02-28T00:40:26;5.40;;;2.00;;
9789;SDS011;4934;50.852;8.098;2023-02-28T00:42:52;10.83;;;2.97;;
9789;SDS011;4934;50.852;8.098;2023-02-28T00:45:18;8.33;;;2.70;;
9789;SDS011;4934;50.852;8.098;2023-02-28T00:47:43;5.20;;;2.40;;
9789;SDS011;4934;50.852;8.098;2023-02-28T00:50:11;5.77;;;1.70;;
9789;SDS011;4934;50.852;8.098;2023-02-28T00:52:37;9.33;;;2.53;;
9789;SDS011;4934;50.852;8.098;2023-02-28T00:55:03;7.10;;;2.13;;
9789;SDS011;4934;50.852;8.098;2023-02-28T00:57:29;3.73;;;1.63;;
9789;SDS011;4934;50.852;8.098;2023-02-28T00:59:55;6.27;;;2.50;;
9789;SDS011;4934;50.852;8.098;2023-02-28T01:02:21;6.77;;;2.70;;
9789;SDS011;4934;50.852;8.098;2023-02-28T01:04:47;3.57;;;2.30;;
9789;SDS011;4934;50.852;8.098;2023-02-28T01:07:13;7.67;;;2.90;;
9789;SDS011;4934;50.852;8.098;2023-02-28T01:09:39;5.10;;;1.87;;
9789;SDS011;4934;50.852;8.098;2023-02-28T01:12:06;3.67;;;1.77;;
9789;SDS011;4934;50.852;8.098;2023-02-28T01:14:33;7.07;;;2.00;;
9789;SDS011;4934;50.852;8.098;2023-02-28T01:16:59;7.23;;;2.80;;
9789;SDS011;4934;50.852;8.098;2023-02-28T01:19:25;6.23;;;2.50;;
9789;SDS011;4934;50.852;8.098;2023-02-28T01:21:51;8.00;;;2.73;;
9789;SDS011;4934;50.852;8.098;2023-02-28T01:24:17;4.53;;;2.33;;
9789;SDS011;4934;50.852;8.098;2023-02-28T01:26:42;4.43;;;2.73;;
9789;SDS011;4934;50.852;8.098;2023-02-28T01:29:08;3.60;;;1.93;;
9789;SDS011;4934;50.852;8.098;2023-02-28T01:31:33;3.80;;;2.27;;
9789;SDS011;4934;50.852;8.098;2023-02-28T01:33:59;5.23;;;2.53;;
9789;SDS011;4934;50.852;8.098;2023-02-28T01:36:25;5.50;;;2.87;;
9789;SDS011;4934;50.852;8.098;2023-02-28T01:38:51;6.20;;;3.03;;
9789;SDS011;4934;50.852;8.098;2023-02-28T01:41:21;5.77;;;2.20;;
9789;SDS011;4934;50.852;8.098;2023-02-28T01:43:52;9.00;;;2.60;;
9789;SDS011;4934;50.852;8.098;2023-02-28T01:46:23;5.60;;;2.77;;
9789;SDS011;4934;50.852;8.098;2023-02-28T01:48:53;5.67;;;2.43;;
9789;SDS011;4934;50.852;8.098;2023-02-28T01:51:24;7.60;;;2.67;;
9789;SDS011;4934;50.852;8.098;2023-02-28T01:53:56;6.33;;;3.20;;
9789;SDS011;4934;50.852;8.098;2023-02-28T01:56:28;6.77;;;3.37;;
9789;SDS011;4934;50.852;8.098;2023-02-28T01:58:56;9.37;;;2.90;;
9789;SDS011;4934;50.852;8.098;2023-02-28T02:01:22;4.60;;;2.67;;
9789;SDS011;4934;50.852;8.098;2023-02-28T02:03:51;8.02;;;3.17;;
9789;SDS011;4934;50.852;8.098;2023-02-28T02:06:24;6.60;;;3.17;;
9789;SDS011;4934;50.852;8.098;2023-02-28T02:08:54;5.20;;;2.97;;
9789;SDS011;4934;50.852;8.098;2023-02-28T02:11:20;8.43;;;2.93;;
9789;SDS011;4934;50.852;8.098;2023-02-28T02:13:55;7.33;;;3.23;;
9789;SDS011;4934;50.852;8.098;2023-02-28T02:16:44;8.10;;;3.27;;
9789;SDS011;4934;50.852;8.098;2023-02-28T02:31:12;5.83;;;2.63;;
9789;SDS011;4934;50.852;8.098;2023-02-28T02:39:34;5.17;;;2.80;;
9789;SDS011;4934;50.852;8.098;2023-02-28T02:42:11;6.80;;;3.33;;
9789;SDS011;4934;50.852;8.098;2023-02-28T02:44:49;6.57;;;2.83;;
9789;SDS011;4934;50.852;8.098;2023-02-28T02:47:21;6.83;;;3.03;;
9789;SDS011;4934;50.852;8.098;2023-02-28T02:49:51;7.20;;;2.70;;
9789;SDS011;4934;50.852;8.098;2023-02-28T02:52:20;7.77;;;3.50;;
9789;SDS011;4934;50.852;8.098;2023-02-28T02:54:50;5.57;;;2.87;;
9789;SDS011;4934;50.852;8.098;2023-02-28T02:57:21;8.33;;;3.23;;
9789;SDS011;4934;50.852;8.098;2023-02-28T02:59:50;5.70;;;2.80;;
9789;SDS011;4934;50.852;8.098;2023-02-28T03:02:19;5.53;;;2.83;;
9789;SDS011;4934;50.852;8.098;2023-02-28T03:04:48;6.43;;;2.90;;
9789;SDS011;4934;50.852;8.098;2023-02-28T03:07:25;4.60;;;2.28;;
9789;SDS011;4934;50.852;8.098;2023-02-28T03:09:52;3.70;;;2.57;;
9789;SDS011;4934;50.852;8.098;2023-02-28T03:12:19;5.83;;;3.00;;
9789;SDS011;4934;50.852;8.098;2023-02-28T03:14:54;8.20;;;3.00;;
9789;SDS011;4934;50.852;8.098;2023-02-28T03:20:17;8.33;;;3.33;;
9789;SDS011;4934;50.852;8.098;2023-02-28T03:23:04;5.90;;;3.00;;
9789;SDS011;4934;50.852;8.098;2023-02-28T03:28:50;6.87;;;3.00;;
9789;SDS011;4934;50.852;8.098;2023-02-28T03:33:47;13.53;;;4.07;;
9789;SDS011;4934;50.852;8.098;2023-02-28T03:36:21;8.90;;;4.27;;
9789;SDS011;4934;50.852;8.098;2023-02-28T03:39:02;8.70;;;3.37;;
9789;SDS011;4934;50.852;8.098;2023-02-28T03:41:40;10.40;;;3.10;;
9789;SDS011;4934;50.852;8.098;2023-02-28T03:44:14;6.13;;;2.93;;
9789;SDS011;4934;50.852;8.098;2023-02-28T03:46:46;7.83;;;3.53;;
9789;SDS011;4934;50.852;8.098;2023-02-28T03:49:27;5.67;;;2.80;;
9789;SDS011;4934;50.852;8.098;2023-02-28T03:52:25;8.03;;;2.97;;
9789;SDS011;4934;50.852;8.098;2023-02-28T03:54:56;5.50;;;3.33;;
9789;SDS011;4934;50.852;8.098;2023-02-28T03:57:37;5.90;;;3.23;;
9789;SDS011;4934;50.852;8.098;2023-02-28T04:00:09;7.40;;;2.53;;
9789;SDS011;4934;50.852;8.098;2023-02-28T04:02:45;7.63;;;2.90;;
9789;SDS011;4934;50.852;8.098;2023-02-28T04:05:17;6.73;;;3.10;;
9789;SDS011;4934;50.852;8.098;2023-02-28T04:07:44;7.73;;;3.33;;
9789;SDS011;4934;50.852;8.098;2023-02-28T04:10:10;7.23;;;3.23;;
9789;SDS011;4934;50.852;8.098;2023-02-28T04:12:36;5.90;;;2.70;;
9789;SDS011;4934;50.852;8.098;2023-02-28T04:15:02;5.97;;;3.53;;
9789;SDS011;4934;50.852;8.098;2023-02-28T04:17:28;7.87;;;3.30;;
9789;SDS011;4934;50.852;8.098;2023-02-28T04:19:54;7.00;;;3.13;;
9789;SDS011;4934;50.852;8.098;2023-02-28T04:22:22;6.05;;;3.08;;
9789;SDS011;4934;50.852;8.098;2023-02-28T04:27:16;7.87;;;2.90;;
9789;SDS011;4934;50.852;8.098;2023-02-28T04:29:41;5.93;;;3.20;;
9789;SDS011;4934;50.852;8.098;2023-02-28T04:32:09;7.43;;;3.57;;
9789;SDS011;4934;50.852;8.098;2023-02-28T04:34:35;8.40;;;3.67;;
9789;SDS011;4934;50.852;8.098;2023-02-28T04:37:01;5.20;;;3.00;;
9789;SDS011;4934;50.852;8.098;2023-02-28T04:39:28;7.67;;;3.17;;
9789;SDS011;4934;50.852;8.098;2023-02-28T04:41:54;8.57;;;3.93;;
9789;SDS011;4934;50.852;8.098;2023-02-28T04:44:20;7.33;;;3.17;;
9789;SDS011;4934;50.852;8.098;2023-02-28T04:46:47;8.47;;;3.77;;
9789;SDS011;4934;50.852;8.098;2023-02-28T04:49:13;5.93;;;3.10;;
9789;SDS011;4934;50.852;8.098;2023-02-28T04:51:39;8.00;;;3.43;;
9789;SDS011;4934;50.852;8.098;2023-02-28T04:54:05;7.90;;;3.83;;
9789;SDS011;4934;50.852;8.098;2023-02-28T04:56:31;5.80;;;3.07;;
9789;SDS011;4934;50.852;8.098;2023-02-28T04:58:56;6.57;;;3.60;;
9789;SDS011;4934;50.852;8.098;2023-02-28T05:03:48;8.70;;;3.63;;
9789;SDS011;4934;50.852;8.098;2023-02-28T05:06:14;8.57;;;3.47;;
9789;SDS011;4934;50.852;8.098;2023-02-28T05:08:40;7.50;;;3.30;;
9789;SDS011;4934;50.852;8.098;2023-02-28T05:11:11;6.83;;;3.17;;
9789;SDS011;4934;50.852;8.098;2023-02-28T05:13:43;9.97;;;4.57;;
9789;SDS011;4934;50.852;8.098;2023-02-28T05:16:09;9.43;;;4.03;;
9789;SDS011;4934;50.852;8.098;2023-02-28T05:18:35;7.47;;;4.00;;
9789;SDS011;4934;50.852;8.098;2023-02-28T05:21:03;8.27;;;3.40;;
9789;SDS011;4934;50.852;8.098;2023-02-28T05:23:29;8.57;;;3.83;;
9789;SDS011;4934;50.852;8.098;2023-02-28T05:25:55;8.30;;;3.57;;
9789;SDS011;4934;50.852;8.098;2023-02-28T05:28:21;7.27;;;3.70;;
9789;SDS011;4934;50.852;8.098;2023-02-28T05:30:46;7.77;;;3.17;;
9789;SDS011;4934;50.852;8.098;2023-02-28T05:33:12;11.90;;;4.33;;
9789;SDS011;4934;50.852;8.098;2023-02-28T05:35:39;9.03;;;4.03;;
9789;SDS011;4934;50.852;8.098;2023-02-28T05:38:05;9.40;;;4.20;;
9789;SDS011;4934;50.852;8.098;2023-02-28T05:40:31;8.60;;;4.50;;
9789;SDS011;4934;50.852;8.098;2023-02-28T05:42:57;7.93;;;3.87;;
9789;SDS011;4934;50.852;8.098;2023-02-28T05:45:22;7.63;;;3.77;;
9789;SDS011;4934;50.852;8.098;2023-02-28T05:47:48;8.70;;;4.20;;
9789;SDS011;4934;50.852;8.098;2023-02-28T05:50:14;13.57;;;4.23;;
9789;SDS011;4934;50.852;8.098;2023-02-28T05:52:39;10.13;;;3.87;;
9789;SDS011;4934;50.852;8.098;2023-02-28T05:55:05;9.53;;;3.67;;
9789;SDS011;4934;50.852;8.098;2023-02-28T05:57:31;11.40;;;4.00;;
9789;SDS011;4934;50.852;8.098;2023-02-28T05:59:57;11.40;;;4.07;;
9789;SDS011;4934;50.852;8.098;2023-02-28T06:02:22;7.90;;;3.83;;
9789;SDS011;4934;50.852;8.098;2023-02-28T06:04:48;12.10;;;4.70;;
9789;SDS011;4934;50.852;8.098;2023-02-28T06:07:14;9.47;;;4.00;;
9789;SDS011;4934;50.852;8.098;2023-02-28T06:09:40;9.63;;;3.73;;
9789;SDS011;4934;50.852;8.098;2023-02-28T06:12:06;7.93;;;4.03;;
9789;SDS011;4934;50.852;8.098;2023-02-28T06:14:34;8.82;;;3.72;;
9789;SDS011;4934;50.852;8.098;2023-02-28T06:17:00;8.07;;;4.27;;
9789;SDS011;4934;50.852;8.098;2023-02-28T06:19:26;11.57;;;4.70;;
9789;SDS011;4934;50.852;8.098;2023-02-28T06:21:52;10.03;;;4.87;;
9789;SDS011;4934;50.852;8.098;2023-02-28T06:24:20;10.60;;;4.73;;
9789;SDS011;4934;50.852;8.098;2023-02-28T06:26:46;15.80;;;6.90;;
9789;SDS011;4934;50.852;8.098;2023-02-28T06:29:12;15.90;;;6.87;;
9789;SDS011;4934;50.852;8.098;2023-02-28T06:31:42;13.00;;;6.30;;
9789;SDS011;4934;50.852;8.098;2023-02-28T06:34:08;11.77;;;5.43;;
9789;SDS011;4934;50.852;8.098;2023-02-28T06:36:36;15.83;;;5.90;;
9789;SDS011;4934;50.852;8.098;2023-02-28T06:39:03;14.17;;;6.00;;
9789;SDS011;4934;50.852;8.098;2023-02-28T06:41:29;21.13;;;7.60;;
9789;SDS011;4934;50.852;8.098;2023-02-28T06:43:55;15.40;;;6.63;;
9789;SDS011;4934;50.852;8.098;2023-02-28T06:46:20;15.30;;;6.40;;
9789;SDS011;4934;50.852;8.098;2023-02-28T06:48:46;18.33;;;7.20;;
9789;SDS011;4934;50.852;8.098;2023-02-28T06:51:14;18.50;;;7.50;;
9789;SDS011;4934;50.852;8.098;2023-02-28T06:53:41;14.23;;;6.45;;
9789;SDS011;4934;50.852;8.098;2023-02-28T06:56:07;15.13;;;7.13;;
9789;SDS011;4934;50.852;8.098;2023-02-28T06:58:34;20.48;;;8.13;;
9789;SDS011;4934;50.852;8.098;2023-02-28T07:01:00;20.33;;;7.13;;
9789;SDS011;4934;50.852;8.098;2023-02-28T07:03:27;16.57;;;7.50;;
9789;SDS011;4934;50.852;8.098;2023-02-28T07:05:52;10.83;;;6.17;;
9789;SDS011;4934;50.852;8.098;2023-02-28T07:08:18;23.50;;;6.23;;
9789;SDS011;4934;50.852;8.098;2023-02-28T07:10:43;16.83;;;6.97;;
9789;SDS011;4934;50.852;8.098;2023-02-28T07:13:09;21.40;;;7.93;;
9789;SDS011;4934;50.852;8.098;2023-02-28T07:15:38;17.03;;;6.60;;
9789;SDS011;4934;50.852;8.098;2023-02-28T07:18:04;10.32;;;5.13;;
9789;SDS011;4934;50.852;8.098;2023-02-28T07:20:29;12.10;;;5.30;;
9789;SDS011;4934;50.852;8.098;2023-02-28T07:22:55;11.03;;;4.77;;
9789;SDS011;4934;50.852;8.098;2023-02-28T07:25:24;7.77;;;4.27;;
9789;SDS011;4934;50.852;8.098;2023-02-28T07:27:51;10.67;;;4.53;;
9789;SDS011;4934;50.852;8.098;2023-02-28T07:30:17;8.57;;;4.13;;
9789;SDS011;4934;50.852;8.098;2023-02-28T07:32:43;9.10;;;4.53;;
9789;SDS011;4934;50.852;8.098;2023-02-28T07:35:09;9.77;;;4.20;;
9789;SDS011;4934;50.852;8.098;2023-02-28T07:37:34;5.03;;;2.43;;
9789;SDS011;4934;50.852;8.098;2023-02-28T07:40:03;4.75;;;2.10;;
9789;SDS011;4934;50.852;8.098;2023-02-28T07:42:33;6.43;;;1.70;;
9789;SDS011;4934;50.852;8.098;2023-02-28T07:44:59;2.53;;;1.60;;
9789;SDS011;4934;50.852;8.098;2023-02-28T07:47:25;10.30;;;2.93;;
9789;SDS011;4934;50.852;8.098;2023-02-28T07:49:51;9.40;;;2.40;;
9789;SDS011;4934;50.852;8.098;2023-02-28T07:52:16;6.83;;;2.40;;
9789;SDS011;4934;50.852;8.098;2023-02-28T07:54:42;17.87;;;4.80;;
9789;SDS011;4934;50.852;8.098;2023-02-28T07:57:08;8.27;;;3.10;;
9789;SDS011;4934;50.852;8.098;2023-02-28T07:59:33;7.67;;;3.20;;
9789;SDS011;4934;50.852;8.098;2023-02-28T08:01:59;9.20;;;3.60;;
9789;SDS011;4934;50.852;8.098;2023-02-28T08:04:24;9.33;;;2.40;;
9789;SDS011;4934;50.852;8.098;2023-02-28T08:06:50;5.30;;;2.67;;
9789;SDS011;4934;50.852;8.098;2023-02-28T08:09:21;3.30;;;2.00;;
9789;SDS011;4934;50.852;8.098;2023-02-28T08:11:46;2.27;;;1.37;;
9789;SDS011;4934;50.852;8.098;2023-02-28T08:14:12;5.80;;;1.50;;
9789;SDS011;4934;50.852;8.098;2023-02-28T08:16:38;2.47;;;1.53;;
9789;SDS011;4934;50.852;8.098;2023-02-28T08:19:04;5.17;;;1.70;;
9789;SDS011;4934;50.852;8.098;2023-02-28T08:21:29;3.57;;;1.77;;
9789;SDS011;4934;50.852;8.098;2023-02-28T08:23:55;3.77;;;1.90;;
9789;SDS011;4934;50.852;8.098;2023-02-28T08:26:22;5.00;;;1.80;;
9789;SDS011;4934;50.852;8.098;2023-02-28T08:28:48;2.93;;;1.67;;
9789;SDS011;4934;50.852;8.098;2023-02-28T08:31:14;3.33;;;1.67;;
9789;SDS011;4934;50.852;8.098;2023-02-28T08:33:41;4.23;;;1.90;;
9789;SDS011;4934;50.852;8.098;2023-02-28T08:36:08;2.73;;;1.53;;
9789;SDS011;4934;50.852;8.098;2023-02-28T08:38:34;3.60;;;1.60;;
9789;SDS011;4934;50.852;8.098;2023-02-28T08:41:02;4.80;;;1.70;;
9789;SDS011;4934;50.852;8.098;2023-02-28T08:43:32;3.30;;;1.70;;
9789;SDS011;4934;50.852;8.098;2023-02-28T08:45:58;8.30;;;2.30;;
9789;SDS011;4934;50.852;8.098;2023-02-28T08:48:24;15.57;;;5.00;;
9789;SDS011;4934;50.852;8.098;2023-02-28T08:50:55;15.43;;;4.87;;
9789;SDS011;4934;50.852;8.098;2023-02-28T08:53:21;10.43;;;4.73;;
9789;SDS011;4934;50.852;8.098;2023-02-28T08:55:46;13.70;;;4.70;;
9789;SDS011;4934;50.852;8.098;2023-02-28T08:58:12;7.80;;;3.50;;
9789;SDS011;4934;50.852;8.098;2023-02-28T09:00:37;8.60;;;3.50;;
9789;SDS011;4934;50.852;8.098;2023-02-28T09:03:03;7.10;;;2.23;;
9789;SDS011;4934;50.852;8.098;2023-02-28T09:05:28;7.57;;;3.23;;
9789;SDS011;4934;50.852;8.098;2023-02-28T09:07:54;3.80;;;2.13;;
9789;SDS011;4934;50.852;8.098;2023-02-28T09:10:20;5.30;;;2.70;;
9789;SDS011;4934;50.852;8.098;2023-02-28T09:12:46;5.83;;;2.73;;
9789;SDS011;4934;50.852;8.098;2023-02-28T09:15:12;4.47;;;2.20;;
9789;SDS011;4934;50.852;8.098;2023-02-28T09:17:37;4.00;;;2.10;;
9789;SDS011;4934;50.852;8.098;2023-02-28T09:20:04;5.90;;;2.33;;
9789;SDS011;4934;50.852;8.098;2023-02-28T09:22:30;5.83;;;1.90;;
9789;SDS011;4934;50.852;8.098;2023-02-28T09:24:56;7.37;;;2.40;;
9789;SDS011;4934;50.852;8.098;2023-02-28T09:27:21;4.07;;;2.33;;
9789;SDS011;4934;50.852;8.098;2023-02-28T09:29:47;6.70;;;1.90;;
9789;SDS011;4934;50.852;8.098;2023-02-28T09:32:12;3.73;;;1.93;;
9789;SDS011;4934;50.852;8.098;2023-02-28T09:34:38;5.07;;;2.10;;
9789;SDS011;4934;50.852;8.098;2023-02-28T09:37:04;5.63;;;2.13;;
9789;SDS011;4934;50.852;8.098;2023-02-28T09:39:29;3.37;;;1.93;;
9789;SDS011;4934;50.852;8.098;2023-02-28T09:41:55;3.40;;;1.87;;
9789;SDS011;4934;50.852;8.098;2023-02-28T09:44:37;4.67;;;2.20;;
9789;SDS011;4934;50.852;8.098;2023-02-28T09:47:21;7.15;;;2.97;;
9789;SDS011;4934;50.852;8.098;2023-02-28T09:52:28;6.70;;;2.83;;
9789;SDS011;4934;50.852;8.098;2023-02-28T09:55:18;3.42;;;2.08;;
9789;SDS011;4934;50.852;8.098;2023-02-28T09:57:52;4.40;;;1.90;;
9789;SDS011;4934;50.852;8.098;2023-02-28T10:02:56;8.15;;;2.42;;
9789;SDS011;4934;50.852;8.098;2023-02-28T10:05:36;5.47;;;2.10;;
9789;SDS011;4934;50.852;8.098;2023-02-28T10:08:15;4.55;;;2.45;;
9789;SDS011;4934;50.852;8.098;2023-02-28T10:10:47;6.37;;;2.20;;
9789;SDS011;4934;50.852;8.098;2023-02-28T10:13:19;9.03;;;2.80;;
9789;SDS011;4934;50.852;8.098;2023-02-28T10:15:50;5.63;;;2.80;;
9789;SDS011;4934;50.852;8.098;2023-02-28T10:18:20;3.83;;;2.40;;
9789;SDS011;4934;50.852;8.098;2023-02-28T10:20:49;5.30;;;3.17;;
9789;SDS011;4934;50.852;8.098;2023-02-28T10:23:20;6.57;;;2.40;;
9789;SDS011;4934;50.852;8.098;2023-02-28T10:26:01;6.53;;;2.87;;
9789;SDS011;4934;50.852;8.098;2023-02-28T10:28:43;10.00;;;3.20;;
9789;SDS011;4934;50.852;8.098;2023-02-28T10:31:18;5.40;;;2.93;;
9789;SDS011;4934;50.852;8.098;2023-02-28T10:33:44;9.83;;;3.47;;
9789;SDS011;4934;50.852;8.098;2023-02-28T10:36:14;5.43;;;3.03;;
9789;SDS011;4934;50.852;8.098;2023-02-28T10:38:42;4.40;;;2.70;;
9789;SDS011;4934;50.852;8.098;2023-02-28T10:41:10;6.07;;;2.77;;
9789;SDS011;4934;50.852;8.098;2023-02-28T10:43:38;4.95;;;2.83;;
9789;SDS011;4934;50.852;8.098;2023-02-28T10:48:37;6.43;;;3.13;;
9789;SDS011;4934;50.852;8.098;2023-02-28T10:51:05;5.00;;;2.50;;
9789;SDS011;4934;50.852;8.098;2023-02-28T10:53:35;5.77;;;3.20;;
9789;SDS011;4934;50.852;8.098;2023-02-28T11:01:21;6.20;;;2.43;;
9789;SDS011;4934;50.852;8.098;2023-02-28T11:03:49;5.27;;;2.47;;
9789;SDS011;4934;50.852;8.098;2023-02-28T11:06:17;4.60;;;2.77;;
9789;SDS011;4934;50.852;8.098;2023-02-28T11:08:46;5.97;;;3.23;;
9789;SDS011;4934;50.852;8.098;2023-02-28T11:11:17;8.57;;;3.27;;
9789;SDS011;4934;50.852;8.098;2023-02-28T11:13:43;4.73;;;3.07;;
9789;SDS011;4934;50.852;8.098;2023-02-28T11:16:11;11.50;;;3.23;;
9789;SDS011;4934;50.852;8.098;2023-02-28T11:18:43;6.28;;;3.15;;
9789;SDS011;4934;50.852;8.098;2023-02-28T11:21:26;6.23;;;3.00;;
9789;SDS011;4934;50.852;8.098;2023-02-28T11:23:58;8.17;;;3.20;;
9789;SDS011;4934;50.852;8.098;2023-02-28T11:26:45;5.73;;;3.40;;
9789;SDS011;4934;50.852;8.098;2023-02-28T11:29:30;7.13;;;3.10;;
9789;SDS011;4934;50.852;8.098;2023-02-28T11:32:02;6.83;;;3.50;;
9789;SDS011;4934;50.852;8.098;2023-02-28T11:34:41;7.20;;;3.20;;
9789;SDS011;4934;50.852;8.098;2023-02-28T11:37:12;7.57;;;4.53;;
9789;SDS011;4934;50.852;8.098;2023-02-28T11:39:43;7.07;;;3.47;;
9789;SDS011;4934;50.852;8.098;2023-02-28T11:45:01;7.77;;;4.63;;
9789;SDS011;4934;50.852;8.098;2023-02-28T11:50:22;6.60;;;3.73;;
9789;SDS011;4934;50.852;8.098;2023-02-28T11:53:22;7.63;;;3.53;;
9789;SDS011;4934;50.852;8.098;2023-02-28T12:07:15;9.93;;;4.07;;
9789;SDS011;4934;50.852;8.098;2023-02-28T12:15:16;9.93;;;4.60;;
9789;SDS011;4934;50.852;8.098;2023-02-28T12:20:55;8.53;;;4.30;;
9789;SDS011;4934;50.852;8.098;2023-02-28T12:23:26;7.80;;;3.90;;
9789;SDS011;4934;50.852;8.098;2023-02-28T12:26:20;10.52;;;4.65;;
9789;SDS011;4934;50.852;8.098;2023-02-28T12:29:01;8.63;;;4.27;;
9789;SDS011;4934;50.852;8.098;2023-02-28T12:31:53;7.40;;;4.10;;
9789;SDS011;4934;50.852;8.098;2023-02-28T12:34:33;10.40;;;5.10;;
9789;SDS011;4934;50.852;8.098;2023-02-28T12:37:07;8.93;;;4.43;;
9789;SDS011;4934;50.852;8.098;2023-02-28T12:39:49;10.73;;;4.90;;
9789;SDS011;4934;50.852;8.098;2023-02-28T12:42:26;7.50;;;4.33;;
9789;SDS011;4934;50.852;8.098;2023-02-28T12:44:59;11.03;;;4.67;;
9789;SDS011;4934;50.852;8.098;2023-02-28T12:47:28;8.20;;;4.53;;
9789;SDS011;4934;50.852;8.098;2023-02-28T12:49:56;8.33;;;4.90;;
9789;SDS011;4934;50.852;8.098;2023-02-28T13:00:14;7.50;;;4.23;;
9789;SDS011;4934;50.852;8.098;2023-02-28T13:05:35;9.63;;;4.40;;
9789;SDS011;4934;50.852;8.098;2023-02-28T13:08:22;7.53;;;4.50;;
9789;SDS011;4934;50.852;8.098;2023-02-28T13:11:22;8.50;;;4.67;;
9789;SDS011;4934;50.852;8.098;2023-02-28T13:13:56;7.43;;;4.43;;
9789;SDS011;4934;50.852;8.098;2023-02-28T13:16:27;9.03;;;4.23;;
9789;SDS011;4934;50.852;8.098;2023-02-28T13:18:53;9.87;;;4.30;;
9789;SDS011;4934;50.852;8.098;2023-02-28T13:21:41;7.70;;;3.87;;
9789;SDS011;4934;50.852;8.098;2023-02-28T13:24:09;9.97;;;4.57;;
9789;SDS011;4934;50.852;8.098;2023-02-28T13:29:02;8.47;;;4.30;;
9789;SDS011;4934;50.852;8.098;2023-02-28T13:34:30;8.47;;;4.43;;
9789;SDS011;4934;50.852;8.098;2023-02-28T13:39:50;8.13;;;3.97;;
9789;SDS011;4934;50.852;8.098;2023-02-28T13:47:49;9.57;;;4.33;;
9789;SDS011;4934;50.852;8.098;2023-02-28T13:50:27;12.83;;;5.47;;
9789;SDS011;4934;50.852;8.098;2023-02-28T13:53:18;8.80;;;4.47;;
9789;SDS011;4934;50.852;8.098;2023-02-28T13:59:15;8.97;;;4.67;;
9789;SDS011;4934;50.852;8.098;2023-02-28T14:07:05;7.83;;;4.17;;
9789;SDS011;4934;50.852;8.098;2023-02-28T14:09:33;9.15;;;4.50;;
9789;SDS011;4934;50.852;8.098;2023-02-28T14:15:26;10.90;;;4.47;;
9789;SDS011;4934;50.852;8.098;2023-02-28T14:17:55;11.45;;;5.00;;
9789;SDS011;4934;50.852;8.098;2023-02-28T14:20:24;10.52;;;5.50;;
9789;SDS011;4934;50.852;8.098;2023-02-28T14:22:58;11.77;;;4.50;;
9789;SDS011;4934;50.852;8.098;2023-02-28T14:25:38;8.20;;;4.43;;
9789;SDS011;4934;50.852;8.098;2023-02-28T14:31:23;8.90;;;5.23;;
9789;SDS011;4934;50.852;8.098;2023-02-28T14:36:49;8.68;;;4.38;;
9789;SDS011;4934;50.852;8.098;2023-02-28T14:39:19;8.18;;;4.25;;
9789;SDS011;4934;50.852;8.098;2023-02-28T14:41:47;8.32;;;4.05;;
9789;SDS011;4934;50.852;8.098;2023-02-28T14:46:52;10.75;;;5.43;;
9789;SDS011;4934;50.852;8.098;2023-02-28T14:49:24;14.15;;;5.78;;
9789;SDS011;4934;50.852;8.098;2023-02-28T14:54:30;11.85;;;6.00;;
9789;SDS011;4934;50.852;8.098;2023-02-28T14:56:56;12.07;;;5.88;;
9789;SDS011;4934;50.852;8.098;2023-02-28T14:59:32;7.53;;;4.63;;
9789;SDS011;4934;50.852;8.098;2023-02-28T15:04:41;7.53;;;5.20;;
9789;SDS011;4934;50.852;8.098;2023-02-28T15:07:14;11.23;;;4.75;;
9789;SDS011;4934;50.852;8.098;2023-02-28T15:09:40;8.52;;;4.50;;
9789;SDS011;4934;50.852;8.098;2023-02-28T15:12:06;10.20;;;5.15;;
9789;SDS011;4934;50.852;8.098;2023-02-28T15:14:32;8.95;;;5.10;;
9789;SDS011;4934;50.852;8.098;2023-02-28T15:17:05;9.25;;;4.85;;
9789;SDS011;4934;50.852;8.098;2023-02-28T15:19:37;9.25;;;4.63;;
9789;SDS011;4934;50.852;8.098;2023-02-28T15:22:16;9.30;;;4.83;;
9789;SDS011;4934;50.852;8.098;2023-02-28T15:24:49;9.45;;;4.45;;
9789;SDS011;4934;50.852;8.098;2023-02-28T15:30:07;11.50;;;4.72;;
9789;SDS011;4934;50.852;8.098;2023-02-28T15:32:40;7.47;;;4.87;;
9789;SDS011;4934;50.852;8.098;2023-02-28T15:35:20;8.07;;;4.57;;
9789;SDS011;4934;50.852;8.098;2023-02-28T15:38:24;9.25;;;4.97;;
9789;SDS011;4934;50.852;8.098;2023-02-28T15:40:49;11.33;;;4.87;;
9789;SDS011;4934;50.852;8.098;2023-02-28T15:43:28;10.27;;;5.27;;
9789;SDS011;4934;50.852;8.098;2023-02-28T15:48:27;8.57;;;5.23;;
9789;SDS011;4934;50.852;8.098;2023-02-28T15:50:56;11.93;;;5.17;;
9789;SDS011;4934;50.852;8.098;2023-02-28T15:53:47;10.03;;;5.00;;
9789;SDS011;4934;50.852;8.098;2023-02-28T15:56:28;11.43;;;5.03;;
9789;SDS011;4934;50.852;8.098;2023-02-28T15:58:57;10.53;;;4.30;;
9789;SDS011;4934;50.852;8.098;2023-02-28T16:01:36;8.60;;;4.40;;
9789;SDS011;4934;50.852;8.098;2023-02-28T16:04:04;11.47;;;4.47;;
9789;SDS011;4934;50.852;8.098;2023-02-28T16:06:46;7.47;;;4.33;;
9789;SDS011;4934;50.852;8.098;2023-02-28T16:09:29;6.90;;;4.40;;
9789;SDS011;4934;50.852;8.098;2023-02-28T16:11:56;9.83;;;4.57;;
9789;SDS011;4934;50.852;8.098;2023-02-28T16:14:26;7.97;;;4.77;;
9789;SDS011;4934;50.852;8.098;2023-02-28T16:16:55;9.05;;;4.13;;
9789;SDS011;4934;50.852;8.098;2023-02-28T16:19:26;9.23;;;4.73;;
9789;SDS011;4934;50.852;8.098;2023-02-28T16:21:52;8.60;;;5.00;;
9789;SDS011;4934;50.852;8.098;2023-02-28T16:24:18;8.70;;;4.67;;
9789;SDS011;4934;50.852;8.098;2023-02-28T16:26:45;8.93;;;4.73;;
9789;SDS011;4934;50.852;8.098;2023-02-28T16:29:19;8.80;;;4.77;;
9789;SDS011;4934;50.852;8.098;2023-02-28T16:31:53;10.63;;;4.80;;
9789;SDS011;4934;50.852;8.098;2023-02-28T16:34:19;9.13;;;4.90;;
9789;SDS011;4934;50.852;8.098;2023-02-28T16:36:48;9.17;;;4.83;;
9789;SDS011;4934;50.852;8.098;2023-02-28T16:39:14;8.53;;;4.90;;
9789;SDS011;4934;50.852;8.098;2023-02-28T16:41:43;8.60;;;4.83;;
9789;SDS011;4934;50.852;8.098;2023-02-28T16:44:20;8.60;;;4.87;;
9789;SDS011;4934;50.852;8.098;2023-02-28T16:46:52;11.45;;;5.18;;
9789;SDS011;4934;50.852;8.098;2023-02-28T16:49:18;11.23;;;5.43;;
9789;SDS011;4934;50.852;8.098;2023-02-28T16:51:43;11.20;;;5.20;;
9789;SDS011;4934;50.852;8.098;2023-02-28T16:54:09;9.67;;;4.97;;
9789;SDS011;4934;50.852;8.098;2023-02-28T16:56:35;11.67;;;5.23;;
9789;SDS011;4934;50.852;8.098;2023-02-28T16:59:02;12.67;;;5.27;;
9789;SDS011;4934;50.852;8.098;2023-02-28T17:01:28;10.87;;;5.17;;
9789;SDS011;4934;50.852;8.098;2023-02-28T17:03:54;10.63;;;5.20;;
9789;SDS011;4934;50.852;8.098;2023-02-28T17:06:24;14.37;;;5.77;;
9789;SDS011;4934;50.852;8.098;2023-02-28T17:08:53;12.33;;;5.37;;
9789;SDS011;4934;50.852;8.098;2023-02-28T17:11:19;12.57;;;5.20;;
9789;SDS011;4934;50.852;8.098;2023-02-28T17:13:45;11.23;;;5.70;;
9789;SDS011;4934;50.852;8.098;2023-02-28T17:18:55;14.13;;;5.50;;
9789;SDS011;4934;50.852;8.098;2023-02-28T17:21:23;12.63;;;5.97;;
9789;SDS011;4934;50.852;8.098;2023-02-28T17:23:49;13.50;;;7.40;;
9789;SDS011;4934;50.852;8.098;2023-02-28T17:26:15;18.03;;;8.20;;
9789;SDS011;4934;50.852;8.098;2023-02-28T17:28:45;14.93;;;7.27;;
9789;SDS011;4934;50.852;8.098;2023-02-28T17:31:11;11.50;;;6.10;;
9789;SDS011;4934;50.852;8.098;2023-02-28T17:33:37;11.83;;;6.03;;
9789;SDS011;4934;50.852;8.098;2023-02-28T17:36:03;15.27;;;5.77;;